Time;durP1;ratioP1;P1;durP2;ratioP2;P2;SDS_P1;SDS_P2;PMS_P1;PMS_P2;Temp;Humidity;BMP_temperature;BMP_pressure;BME280_temperature;BME280_humidity;BME280_pressure;Samples;Min_cycle;Max_cycle;Signal;HPM_P1;HPM_P2
2020/12/21 00:02:21;;;;;;;;;;;7.10;99.90;;;;;;5036250;28;19956;-87
2020/12/21 00:04:49;;;;;;;;;;;7.10;99.90;;;;;;5036474;28;19915;-88
2020/12/21 00:07:16;;;;;;;;;;;7.10;99.90;;;;;;5036098;28;19910;-88
2020/12/21 00:09:47;;;;;;;;;;;7.10;99.90;;;;;;5036458;28;20007;-86
2020/12/21 00:12:12;;;;;;;;;;;7.10;99.90;;;;;;5036515;28;19913;-87
2020/12/21 00:14:40;;;;;;;;;;;7.10;99.90;;;;;;5036700;28;19917;-87
2020/12/21 00:17:06;;;;;;;;;;;7.10;99.90;;;;;;5036402;28;19917;-86
2020/12/21 00:19:34;;;;;;;;;;;7.10;99.90;;;;;;5036197;28;19913;-86
2020/12/21 00:21:59;;;;;;;;;;;7.10;99.90;;;;;;5036123;28;20324;-87
2020/12/21 00:24:25;;;;;;;;;;;7.20;99.90;;;;;;5036404;28;19917;-87
2020/12/21 00:26:51;;;;;;;;;;;7.20;99.90;;;;;;5035672;28;20270;-87
2020/12/21 00:29:17;;;;;;;;;;;7.20;99.90;;;;;;5036076;28;19963;-88
2020/12/21 00:31:43;;;;;;;;;;;7.20;99.90;;;;;;5035970;28;19936;-85
2020/12/21 00:34:09;;;;;;;;;;;7.10;99.90;;;;;;5036002;28;20369;-87
2020/12/21 00:36:36;;;;;;;;;;;7.10;99.90;;;;;;5035872;28;20444;-86
2020/12/21 00:39:04;;;;;;;;;;;7.10;99.90;;;;;;5035901;28;19996;-88
2020/12/21 00:41:32;;;;;;;;;;;7.00;99.90;;;;;;5035574;28;19910;-86
2020/12/21 00:44:00;;;;;;;;;;;7.00;99.90;;;;;;5035597;28;20394;-88
2020/12/21 00:46:27;;;;;;;;;;;7.00;99.90;;;;;;5035159;28;19928;-86
2020/12/21 00:48:53;;;;;;;;;;;7.00;99.90;;;;;;5035432;28;19952;-87
2020/12/21 00:51:19;;;;;;;;;;;7.00;99.90;;;;;;5035659;28;19913;-86
2020/12/21 00:53:48;;;;;;;;;;;7.00;99.90;;;;;;5036034;28;20436;-87
2020/12/21 00:56:15;;;;;;;;;;;7.00;99.90;;;;;;5035555;28;19952;-87
2020/12/21 00:58:44;;;;;;;;;;;6.90;99.90;;;;;;5035772;28;19915;-87
2020/12/21 01:01:15;;;;;;;;;;;7.00;99.90;;;;;;5036355;28;20391;-86
2020/12/21 01:03:43;;;;;;;;;;;6.90;99.90;;;;;;5035255;28;20007;-87
2020/12/21 01:06:11;;;;;;;;;;;6.90;99.90;;;;;;5035171;28;19916;-86
2020/12/21 01:08:39;;;;;;;;;;;6.80;99.90;;;;;;5035327;28;19914;-86
2020/12/21 01:11:11;;;;;;;;;;;6.90;99.90;;;;;;5035003;28;19913;-87
2020/12/21 01:13:37;;;;;;;;;;;6.90;99.90;;;;;;5035347;28;20377;-88
2020/12/21 01:16:03;;;;;;;;;;;6.90;99.90;;;;;;5035036;28;19913;-87
2020/12/21 01:18:28;;;;;;;;;;;6.90;99.90;;;;;;5035231;28;19909;-88
2020/12/21 01:20:54;;;;;;;;;;;6.90;99.90;;;;;;5034992;28;19909;-87
2020/12/21 01:23:22;;;;;;;;;;;6.90;99.90;;;;;;5034954;28;19959;-87
2020/12/21 01:25:48;;;;;;;;;;;6.90;99.90;;;;;;5034579;28;19910;-87
2020/12/21 01:28:13;;;;;;;;;;;6.90;99.90;;;;;;5034943;28;20269;-87
2020/12/21 01:30:39;;;;;;;;;;;6.90;99.90;;;;;;5034824;28;19917;-88
2020/12/21 01:33:04;;;;;;;;;;;6.90;99.90;;;;;;5035235;28;19955;-87
2020/12/21 01:35:30;;;;;;;;;;;6.90;99.90;;;;;;5034530;28;20373;-87
2020/12/21 01:37:58;;;;;;;;;;;6.90;99.90;;;;;;5035139;28;19910;-87
2020/12/21 01:40:23;;;;;;;;;;;6.90;99.90;;;;;;5034484;28;19909;-87
2020/12/21 01:42:49;;;;;;;;;;;6.90;99.90;;;;;;5034365;28;19916;-87
2020/12/21 01:45:14;;;;;;;;;;;6.90;99.90;;;;;;5033994;28;19916;-88
2020/12/21 01:47:40;;;;;;;;;;;6.90;99.90;;;;;;5034601;28;19931;-87
2020/12/21 01:50:06;;;;;;;;;;;6.90;99.90;;;;;;5034157;28;19960;-87
2020/12/21 01:52:34;;;;;;;;;;;6.90;99.90;;;;;;5034511;28;19917;-87
2020/12/21 01:55:00;;;;;;;;;;;6.90;99.90;;;;;;5034412;28;20391;-87
2020/12/21 01:57:26;;;;;;;;;;;7.00;99.90;;;;;;5034300;28;19909;-86
2020/12/21 01:59:51;;;;;;;;;;;6.90;99.90;;;;;;5034683;28;19913;-87
2020/12/21 02:02:17;;;;;;;;;;;6.90;99.90;;;;;;5033418;28;19951;-88
2020/12/21 02:04:42;;;;;;;;;;;6.90;99.90;;;;;;5034314;28;19909;-88
2020/12/21 02:07:13;;;;;;;;;;;6.80;99.90;;;;;;5034060;28;19909;-88
2020/12/21 02:09:39;;;;;;;;;;;6.80;99.90;;;;;;5034071;28;19914;-86
2020/12/21 02:12:04;;;;;;;;;;;6.80;99.90;;;;;;5033835;28;19913;-87
2020/12/21 02:14:30;;;;;;;;;;;6.70;99.90;;;;;;5034091;28;19916;-87
2020/12/21 02:16:58;;;;;;;;;;;6.70;99.90;;;;;;5032886;28;19916;-86
2020/12/21 02:19:25;;;;;;;;;;;6.70;99.90;;;;;;5034218;28;19911;-88
2020/12/21 02:21:53;;;;;;;;;;;6.70;99.90;;;;;;5033594;28;20396;-87
2020/12/21 02:24:21;;;;;;;;;;;6.70;99.90;;;;;;5033798;28;19913;-87
2020/12/21 02:26:47;;;;;;;;;;;6.70;99.90;;;;;;5033200;28;19996;-87
2020/12/21 02:29:12;;;;;;;;;;;6.70;99.90;;;;;;5033947;28;19967;-86
2020/12/21 02:31:38;;;;;;;;;;;6.70;99.90;;;;;;5035258;28;20434;-87
2020/12/21 02:34:03;;;;;;;;;;;6.70;99.90;;;;;;5034135;28;19932;-86
2020/12/21 02:36:29;;;;;;;;;;;6.70;99.90;;;;;;5033824;28;19909;-88
2020/12/21 02:38:54;;;;;;;;;;;6.70;99.90;;;;;;5033578;28;20276;-87
2020/12/21 02:41:27;;;;;;;;;;;6.80;99.90;;;;;;5033439;28;19909;-87
2020/12/21 02:43:53;;;;;;;;;;;6.80;99.90;;;;;;5033840;28;19916;-86
2020/12/21 02:46:18;;;;;;;;;;;6.80;99.90;;;;;;5033398;28;19921;-87
2020/12/21 02:48:46;;;;;;;;;;;6.80;99.90;;;;;;5033458;28;19920;-87
2020/12/21 02:51:16;;;;;;;;;;;6.80;99.90;;;;;;5033463;28;19924;-88
2020/12/21 02:53:45;;;;;;;;;;;6.80;99.90;;;;;;5033686;28;19920;-87
2020/12/21 02:56:13;;;;;;;;;;;6.70;99.90;;;;;;5034559;28;20483;-86
2020/12/21 02:58:41;;;;;;;;;;;6.70;99.90;;;;;;5033388;28;19959;-87
2020/12/21 03:01:09;;;;;;;;;;;6.60;99.90;;;;;;5033366;28;19936;-87
2020/12/21 03:03:37;;;;;;;;;;;6.60;99.90;;;;;;5033360;28;20360;-87
2020/12/21 03:06:05;;;;;;;;;;;6.50;99.90;;;;;;5032958;28;20444;-87
2020/12/21 03:08:30;;;;;;;;;;;6.50;99.90;;;;;;5033105;28;19916;-88
2020/12/21 03:10:58;;;;;;;;;;;6.50;99.90;;;;;;5033540;28;19917;-87
2020/12/21 03:13:24;;;;;;;;;;;6.40;99.90;;;;;;5033320;28;19913;-87
2020/12/21 03:15:52;;;;;;;;;;;6.40;99.90;;;;;;5033399;28;19913;-87
2020/12/21 03:18:17;;;;;;;;;;;6.40;99.90;;;;;;5033507;28;20088;-87
2020/12/21 03:20:43;;;;;;;;;;;6.40;99.90;;;;;;5032687;28;19909;-87
2020/12/21 03:23:11;;;;;;;;;;;6.30;99.90;;;;;;5033078;28;19955;-87
2020/12/21 03:25:36;;;;;;;;;;;6.30;99.90;;;;;;5032850;28;20365;-87
2020/12/21 03:28:04;;;;;;;;;;;6.30;99.90;;;;;;5032640;28;19917;-87
2020/12/21 03:30:30;;;;;;;;;;;6.30;99.90;;;;;;5032775;28;19999;-86
2020/12/21 03:32:55;;;;;;;;;;;6.30;99.90;;;;;;5033021;28;19963;-86
2020/12/21 03:35:21;;;;;;;;;;;6.20;99.90;;;;;;5032776;28;19917;-86
2020/12/21 03:37:49;;;;;;;;;;;6.20;99.90;;;;;;5033139;28;19913;-86
2020/12/21 03:40:14;;;;;;;;;;;6.20;99.90;;;;;;5033336;28;19959;-86
2020/12/21 03:42:42;;;;;;;;;;;6.20;99.90;;;;;;5032915;28;19909;-87
2020/12/21 03:45:10;;;;;;;;;;;6.10;99.90;;;;;;5032740;28;19931;-88
2020/12/21 03:47:36;;;;;;;;;;;6.10;99.90;;;;;;5032417;28;20381;-86
2020/12/21 03:50:01;;;;;;;;;;;6.10;99.90;;;;;;5032417;28;19917;-87
2020/12/21 03:52:29;;;;;;;;;;;6.10;99.90;;;;;;5032784;28;20392;-87
2020/12/21 03:54:55;;;;;;;;;;;6.10;99.90;;;;;;5032940;28;19924;-87
2020/12/21 03:57:20;;;;;;;;;;;6.00;99.90;;;;;;5032864;28;19909;-87
2020/12/21 03:59:48;;;;;;;;;;;6.00;99.90;;;;;;5032851;28;19916;-87
2020/12/21 04:02:14;;;;;;;;;;;6.00;99.90;;;;;;5032445;28;20011;-87
2020/12/21 04:04:39;;;;;;;;;;;6.00;99.90;;;;;;5032350;28;20443;-87
2020/12/21 04:07:05;;;;;;;;;;;6.00;99.90;;;;;;5032543;28;20010;-89
2020/12/21 04:09:33;;;;;;;;;;;5.90;99.90;;;;;;5032286;28;20277;-86
2020/12/21 04:11:58;;;;;;;;;;;5.90;99.90;;;;;;5032398;28;19913;-87
2020/12/21 04:14:26;;;;;;;;;;;5.90;99.90;;;;;;5032206;28;19917;-86
2020/12/21 04:16:51;;;;;;;;;;;5.90;99.90;;;;;;5032555;28;20448;-87
2020/12/21 04:19:17;;;;;;;;;;;5.80;99.90;;;;;;5032586;28;20008;-87
2020/12/21 04:21:45;;;;;;;;;;;5.80;99.90;;;;;;5032789;28;19915;-87
2020/12/21 04:24:11;;;;;;;;;;;5.80;99.90;;;;;;5028072;28;20289;-86
2020/12/21 04:26:39;;;;;;;;;;;5.70;99.90;;;;;;5025226;28;19963;-86
2020/12/21 04:29:09;;;;;;;;;;;5.70;99.90;;;;;;5018489;28;19914;-87
2020/12/21 04:31:35;;;;;;;;;;;5.70;99.90;;;;;;5020960;28;19914;-87
2020/12/21 04:34:00;;;;;;;;;;;5.70;99.90;;;;;;5021336;28;19960;-87
2020/12/21 04:36:26;;;;;;;;;;;5.70;99.90;;;;;;5020395;28;19910;-87
2020/12/21 04:38:54;;;;;;;;;;;5.70;99.90;;;;;;5022243;28;19921;-87
2020/12/21 04:41:22;;;;;;;;;;;5.70;99.90;;;;;;5025112;28;20341;-86
2020/12/21 04:43:48;;;;;;;;;;;5.70;99.90;;;;;;5027776;28;20383;-87
2020/12/21 04:46:13;;;;;;;;;;;5.70;99.90;;;;;;5035858;28;19952;-86
2020/12/21 04:48:42;;;;;;;;;;;5.60;99.90;;;;;;5035749;28;20012;-86
2020/12/21 04:51:10;;;;;;;;;;;5.60;99.90;;;;;;5036017;28;19913;-87
2020/12/21 04:53:41;;;;;;;;;;;5.60;99.90;;;;;;5035851;28;19909;-87
2020/12/21 04:56:09;;;;;;;;;;;5.60;99.90;;;;;;5035935;28;19909;-87
2020/12/21 04:58:34;;;;;;;;;;;5.60;99.90;;;;;;5035497;28;19909;-87
2020/12/21 05:01:00;;;;;;;;;;;5.60;99.90;;;;;;5035785;28;19909;-87
2020/12/21 05:03:26;;;;;;;;;;;5.60;99.90;;;;;;5035717;28;19909;-86
2020/12/21 05:05:51;;;;;;;;;;;5.60;99.90;;;;;;5035713;28;20277;-87
2020/12/21 05:08:18;;;;;;;;;;;5.60;99.90;;;;;;5035702;28;19916;-86
2020/12/21 05:10:58;;;;;;;;;;;5.60;99.90;;;;;;5035861;28;19925;-87
2020/12/21 05:13:23;;;;;;;;;;;5.60;99.90;;;;;;5035180;28;19996;-87
2020/12/21 05:15:55;;;;;;;;;;;5.50;99.90;;;;;;5035473;28;19909;-87
2020/12/21 05:18:31;;;;;;;;;;;5.50;99.90;;;;;;5035460;28;19975;-87
2020/12/21 05:20:57;;;;;;;;;;;5.60;99.90;;;;;;5034950;28;19931;-86
2020/12/21 05:23:25;;;;;;;;;;;5.60;99.90;;;;;;5035117;28;19909;-86
2020/12/21 05:25:58;;;;;;;;;;;5.60;99.90;;;;;;5026279;28;19933;-87
2020/12/21 05:28:26;;;;;;;;;;;5.60;99.90;;;;;;5024995;28;19909;-87
2020/12/21 05:30:56;;;;;;;;;;;5.60;99.90;;;;;;5024634;28;20308;-87
2020/12/21 05:33:22;;;;;;;;;;;5.60;99.90;;;;;;5023019;28;19918;-88
2020/12/21 05:35:51;;;;;;;;;;;5.70;99.90;;;;;;5026387;28;20300;-86
2020/12/21 05:38:27;;;;;;;;;;;5.70;99.90;;;;;;5023376;28;20384;-87
2020/12/21 05:40:54;;;;;;;;;;;5.70;99.90;;;;;;5019289;28;19909;-86
2020/12/21 05:43:26;;;;;;;;;;;5.70;99.90;;;;;;5025812;28;19956;-86
2020/12/21 05:46:11;;;;;;;;;;;5.70;99.90;;;;;;5023329;28;19932;-87
2020/12/21 05:48:38;;;;;;;;;;;5.70;99.90;;;;;;5025243;28;19910;-87
2020/12/21 05:51:05;;;;;;;;;;;5.70;99.90;;;;;;5022847;28;19913;-87
2020/12/21 05:53:33;;;;;;;;;;;5.70;99.90;;;;;;5024601;28;20308;-86
2020/12/21 05:55:59;;;;;;;;;;;5.80;99.90;;;;;;5023292;28;19917;-86
2020/12/21 05:58:25;;;;;;;;;;;5.80;99.90;;;;;;5026150;28;19909;-86
2020/12/21 06:00:52;;;;;;;;;;;5.80;99.90;;;;;;5024069;28;19916;-87
2020/12/21 06:03:21;;;;;;;;;;;5.80;99.90;;;;;;5024768;28;19917;-87
2020/12/21 06:05:54;;;;;;;;;;;5.80;99.90;;;;;;5023622;28;20023;-86
2020/12/21 06:08:20;;;;;;;;;;;5.80;99.90;;;;;;5022851;28;19910;-86
2020/12/21 06:10:56;;;;;;;;;;;5.80;99.90;;;;;;5024368;28;19919;-87
2020/12/21 06:13:22;;;;;;;;;;;5.80;99.90;;;;;;5024993;28;19917;-87
2020/12/21 06:15:50;;;;;;;;;;;5.80;99.90;;;;;;5026235;28;20401;-87
2020/12/21 06:18:19;;;;;;;;;;;5.90;99.90;;;;;;5023786;28;20042;-86
2020/12/21 06:20:44;;;;;;;;;;;5.80;99.90;;;;;;5022704;28;19913;-86
2020/12/21 06:23:12;;;;;;;;;;;5.80;99.90;;;;;;5024281;28;19909;-86
2020/12/21 06:25:38;;;;;;;;;;;5.80;99.90;;;;;;5021509;28;20373;-87
2020/12/21 06:28:09;;;;;;;;;;;5.80;99.90;;;;;;5022388;28;19916;-87
2020/12/21 06:30:34;;;;;;;;;;;5.90;99.90;;;;;;5024238;28;19991;-86
2020/12/21 06:33:03;;;;;;;;;;;5.90;99.90;;;;;;5024782;28;19917;-87
2020/12/21 06:35:29;;;;;;;;;;;5.90;99.90;;;;;;5022812;28;19910;-87
2020/12/21 06:38:04;;;;;;;;;;;5.90;99.90;;;;;;5025311;28;20009;-87
2020/12/21 06:40:34;;;;;;;;;;;5.80;99.90;;;;;;5022767;28;19917;-87
2020/12/21 06:43:10;;;;;;;;;;;5.80;99.90;;;;;;5022489;28;19916;-86
2020/12/21 06:45:36;;;;;;;;;;;5.80;99.90;;;;;;5024435;28;19925;-88
2020/12/21 06:48:01;;;;;;;;;;;5.80;99.90;;;;;;5021801;28;19939;-86
2020/12/21 06:50:27;;;;;;;;;;;5.80;99.90;;;;;;5024831;28;20292;-87
2020/12/21 06:52:55;;;;;;;;;;;5.80;99.90;;;;;;5024905;28;20008;-87
2020/12/21 06:55:20;;;;;;;;;;;5.70;99.90;;;;;;5033117;28;20411;-87
2020/12/21 06:57:52;;;;;;;;;;;5.70;99.90;;;;;;5033283;28;19913;-87
2020/12/21 07:00:23;;;;;;;;;;;5.70;99.90;;;;;;5033513;28;19944;-87
2020/12/21 07:02:52;;;;;;;;;;;5.60;99.90;;;;;;5032899;28;20432;-86
2020/12/21 07:05:17;;;;;;;;;;;5.60;99.90;;;;;;5027665;28;19914;-87
2020/12/21 07:07:55;;;;;;;;;;;5.60;99.90;;;;;;5022009;28;19916;-87
2020/12/21 07:10:21;;;;;;;;;;;5.60;99.90;;;;;;5021802;28;19921;-86
2020/12/21 07:12:47;;;;;;;;;;;5.60;99.90;;;;;;5021962;28;19952;-87
2020/12/21 07:15:12;;;;;;;;;;;5.60;99.90;;;;;;5022994;28;19909;-87
2020/12/21 07:17:38;;;;;;;;;;;5.60;99.90;;;;;;5020688;28;19917;-86
2020/12/21 07:20:03;;;;;;;;;;;5.60;99.90;;;;;;5020784;28;20356;-88
2020/12/21 07:22:29;;;;;;;;;;;5.60;99.90;;;;;;5014603;28;19913;-86
2020/12/21 07:24:55;;;;;;;;;;;5.60;99.90;;;;;;5011507;28;20266;-87
2020/12/21 07:27:20;;;;;;;;;;;5.50;99.90;;;;;;5040708;28;19913;-86
2020/12/21 07:29:46;;;;;;;;;;;5.50;99.90;;;;;;5030341;28;20004;-86
2020/12/21 07:32:14;;;;;;;;;;;5.60;99.90;;;;;;5030992;28;19944;-85
2020/12/21 07:34:42;;;;;;;;;;;5.50;99.90;;;;;;5030233;28;19909;-85
2020/12/21 07:37:12;;;;;;;;;;;5.50;99.90;;;;;;5030078;28;19949;-85
2020/12/21 07:39:39;;;;;;;;;;;5.50;99.90;;;;;;5030258;28;20351;-86
2020/12/21 07:42:12;;;;;;;;;;;5.50;99.90;;;;;;5030819;28;19913;-86
2020/12/21 08:09:52;;;;;;;;;;;5.60;99.90;;;;;;4976952;28;19972;-87
2020/12/21 08:12:17;;;;;;;;;;;5.60;99.90;;;;;;4987733;28;19918;-87
2020/12/21 08:14:44;;;;;;;;;;;5.60;99.90;;;;;;4975110;28;20277;-86
2020/12/21 08:17:12;;;;;;;;;;;5.60;99.90;;;;;;4988534;28;20365;-87
2020/12/21 08:19:52;;;;;;;;;;;5.60;99.90;;;;;;4991942;28;19929;-86
2020/12/21 08:22:21;;;;;;;;;;;5.60;99.90;;;;;;4974312;28;19922;-86
2020/12/21 12:15:48;;;;;;;;;;;7.70;99.90;;;;;;5044287;22;19929;-86
2020/12/21 12:18:14;;;;;;;;;;;7.70;99.90;;;;;;5012470;28;19917;-86
2020/12/21 12:20:43;;;;;;;;;;;7.70;99.90;;;;;;5013688;28;20399;-85
2020/12/21 12:23:09;;;;;;;;;;;7.80;99.90;;;;;;5015833;28;20024;-85
2020/12/21 12:25:34;;;;;;;;;;;7.80;99.90;;;;;;5016542;28;20356;-86
2020/12/21 12:28:01;;;;;;;;;;;7.90;99.90;;;;;;5015862;28;20357;-86
2020/12/21 12:30:30;;;;;;;;;;;8.00;99.90;;;;;;5015852;28;19913;-86
2020/12/21 12:32:59;;;;;;;;;;;8.00;99.90;;;;;;5015940;28;19920;-87
2020/12/21 12:35:25;;;;;;;;;;;8.00;99.90;;;;;;5016018;28;19916;-85
2020/12/21 12:37:54;;;;;;;;;;;8.00;99.90;;;;;;5015592;28;20353;-85
2020/12/21 12:40:19;;;;;;;;;;;8.00;99.90;;;;;;5016002;28;19913;-85
2020/12/21 12:42:46;;;;;;;;;;;8.00;99.90;;;;;;5015886;28;19915;-85
2020/12/21 12:45:12;;;;;;;;;;;8.00;99.90;;;;;;5016165;28;19921;-85
2020/12/21 12:47:38;;;;;;;;;;;8.10;99.90;;;;;;5015626;28;19909;-85
2020/12/21 12:50:05;;;;;;;;;;;8.20;99.90;;;;;;5015587;28;19913;-86
2020/12/21 12:52:31;;;;;;;;;;;8.20;99.90;;;;;;5016040;28;19913;-86
2020/12/21 12:54:57;;;;;;;;;;;8.30;99.90;;;;;;5015572;28;19916;-86
2020/12/21 12:57:23;;;;;;;;;;;8.30;99.90;;;;;;5015485;28;20003;-85
2020/12/21 12:59:51;;;;;;;;;;;8.40;99.90;;;;;;5015806;28;19909;-85
2020/12/21 13:02:18;;;;;;;;;;;8.40;99.90;;;;;;5019311;28;19916;-85
2020/12/21 13:14:19;;;;;;;;;;;8.50;99.90;;;;;;5033175;23;20610;-87
2020/12/21 13:16:44;;;;;;;;;;;8.50;99.90;;;;;;5014821;28;19917;-86
2020/12/21 13:19:13;;;;;;;;;;;8.50;99.90;;;;;;5015668;28;19913;-85
2020/12/21 13:21:38;;;;;;;;;;;8.60;99.90;;;;;;5015154;28;19920;-86
2020/12/21 13:24:04;;;;;;;;;;;8.50;99.90;;;;;;5015389;28;19912;-86
2020/12/21 13:26:29;;;;;;;;;;;8.60;99.90;;;;;;5032667;28;19920;-86
2020/12/21 13:28:55;;;;;;;;;;;8.60;99.90;;;;;;5014714;28;19913;-86
2020/12/21 13:31:21;;;;;;;;;;;8.60;99.90;;;;;;5014844;28;19920;-86
2020/12/21 13:33:47;;;;;;;;;;;8.60;99.90;;;;;;5015362;28;19924;-86
2020/12/21 13:36:16;;;;;;;;;;;8.50;99.90;;;;;;5014764;28;19913;-85
2020/12/21 13:38:42;;;;;;;;;;;8.50;99.90;;;;;;5015403;28;19948;-85
2020/12/21 13:41:10;;;;;;;;;;;8.50;99.90;;;;;;5014842;28;20356;-86
2020/12/21 13:43:44;;;;;;;;;;;8.50;99.90;;;;;;5015028;28;20332;-86
2020/12/21 13:46:09;;;;;;;;;;;8.60;99.90;;;;;;5000836;28;19914;-87
2020/12/21 13:48:38;;;;;;;;;;;8.70;99.90;;;;;;5015340;28;20055;-86
2020/12/21 13:51:09;;;;;;;;;;;8.60;99.90;;;;;;5014591;28;19921;-86
2020/12/21 13:53:37;;;;;;;;;;;8.60;99.90;;;;;;5011795;28;19917;-86
2020/12/21 13:56:05;;;;;;;;;;;8.60;99.90;;;;;;5011319;28;20305;-85
2020/12/21 13:58:31;;;;;;;;;;;8.70;99.90;;;;;;5014638;28;19920;-86
2020/12/21 14:01:00;;;;;;;;;;;8.60;99.90;;;;;;5014897;28;20383;-85
2020/12/21 14:03:26;;;;;;;;;;;8.60;99.90;;;;;;5014413;28;19920;-86
2020/12/21 14:05:57;;;;;;;;;;;8.60;99.90;;;;;;5015382;28;20000;-86
2020/12/21 14:08:23;;;;;;;;;;;8.70;99.90;;;;;;5014620;28;19913;-89
2020/12/21 14:10:49;;;;;;;;;;;8.70;99.90;;;;;;5014933;28;19931;-91
2020/12/21 14:13:17;;;;;;;;;;;8.80;99.90;;;;;;5013670;28;19913;-91
2020/12/21 14:15:45;;;;;;;;;;;8.70;99.90;;;;;;5024926;28;20019;-86
2020/12/21 14:18:13;;;;;;;;;;;8.60;99.90;;;;;;5030649;28;20403;-85
2020/12/21 14:20:41;;;;;;;;;;;8.60;99.90;;;;;;5030928;28;20365;-87
2020/12/21 14:23:06;;;;;;;;;;;8.70;99.90;;;;;;5030419;28;19913;-86
2020/12/21 14:25:32;;;;;;;;;;;8.70;99.90;;;;;;5030609;28;19920;-86
2020/12/21 14:28:00;;;;;;;;;;;8.60;99.90;;;;;;5030952;28;19920;-86
2020/12/21 14:30:28;;;;;;;;;;;8.60;99.90;;;;;;5031097;28;19921;-85
2020/12/21 14:32:53;;;;;;;;;;;8.50;99.90;;;;;;5030724;28;19945;-85
2020/12/21 14:35:19;;;;;;;;;;;8.60;99.90;;;;;;5030420;28;19952;-87
2020/12/21 14:37:47;;;;;;;;;;;8.50;99.90;;;;;;5031023;28;19913;-86
2020/12/21 14:40:15;;;;;;;;;;;8.50;99.90;;;;;;5032290;28;19909;-85
2020/12/21 14:42:41;;;;;;;;;;;8.40;99.90;;;;;;5030958;28;19909;-85
2020/12/21 14:45:06;;;;;;;;;;;8.40;99.90;;;;;;5031854;28;19917;-86
2020/12/21 14:47:34;;;;;;;;;;;8.50;99.90;;;;;;5030673;28;19913;-85
2020/12/21 14:50:02;;;;;;;;;;;8.50;99.90;;;;;;5030710;28;20466;-85
2020/12/21 14:52:28;;;;;;;;;;;8.50;99.90;;;;;;5029985;28;19920;-85
2020/12/21 14:54:57;;;;;;;;;;;8.50;99.90;;;;;;5030371;28;19913;-84
2020/12/21 14:57:27;;;;;;;;;;;8.50;99.90;;;;;;5029730;28;19960;-84
2020/12/21 14:59:55;;;;;;;;;;;8.50;99.90;;;;;;5030054;28;19914;-85
2020/12/21 15:02:20;;;;;;;;;;;8.40;99.90;;;;;;5029791;28;19920;-85
2020/12/21 15:04:46;;;;;;;;;;;8.40;99.90;;;;;;5030015;28;19917;-85
2020/12/21 15:07:11;;;;;;;;;;;8.40;99.90;;;;;;5030016;28;19913;-87
2020/12/21 15:09:37;;;;;;;;;;;8.40;99.90;;;;;;5030357;28;19959;-86
2020/12/21 15:12:03;;;;;;;;;;;8.30;99.90;;;;;;5029758;28;20059;-85
2020/12/21 15:14:29;;;;;;;;;;;8.30;99.90;;;;;;5030038;28;19921;-84
2020/12/21 15:16:56;;;;;;;;;;;8.30;99.90;;;;;;5015434;28;20416;-84
2020/12/21 15:19:23;;;;;;;;;;;8.30;99.90;;;;;;5029914;28;19920;-85
2020/12/21 15:47:04;;;;;;;;;;;8.20;99.90;;;;;;4967978;28;20117;-86
2020/12/21 15:49:30;;;;;;;;;;;8.10;99.90;;;;;;4987387;28;19922;-85
2020/12/21 16:07:56;;;;;;;;;;;8.10;99.90;;;;;;5027948;22;20454;-86
2020/12/21 16:10:21;;;;;;;;;;;8.10;99.90;;;;;;5011071;28;19929;-86
2020/12/21 16:12:48;;;;;;;;;;;8.10;99.90;;;;;;5019475;28;20024;-85
2020/12/21 16:15:14;;;;;;;;;;;8.10;99.90;;;;;;5017103;28;19913;-85
2020/12/21 16:17:39;;;;;;;;;;;8.10;99.90;;;;;;5020823;28;20345;-86
2020/12/21 16:20:07;;;;;;;;;;;8.20;99.90;;;;;;5023526;28;19909;-86
2020/12/21 16:22:33;;;;;;;;;;;8.10;99.90;;;;;;5016574;28;20391;-86
2020/12/21 16:25:01;;;;;;;;;;;8.10;99.90;;;;;;5029755;28;19913;-84
2020/12/21 16:27:27;;;;;;;;;;;8.20;99.90;;;;;;5029556;28;20357;-85
2020/12/21 16:29:52;;;;;;;;;;;8.10;99.90;;;;;;5018711;28;19929;-86
2020/12/21 16:32:23;;;;;;;;;;;8.10;99.90;;;;;;5012970;28;19975;-86
2020/12/21 16:34:51;;;;;;;;;;;8.20;99.90;;;;;;5029975;28;19917;-86
2020/12/21 16:37:16;;;;;;;;;;;8.20;99.90;;;;;;5018877;28;19913;-87
2020/12/21 16:39:42;;;;;;;;;;;8.20;99.90;;;;;;5028947;28;19924;-87
2020/12/21 16:42:07;;;;;;;;;;;8.20;99.90;;;;;;5023103;28;20399;-87
2020/12/21 16:44:33;;;;;;;;;;;8.10;99.90;;;;;;5018944;28;20280;-86
2020/12/21 16:46:59;;;;;;;;;;;8.10;99.90;;;;;;5033180;28;19913;-86
2020/12/21 16:49:24;;;;;;;;;;;8.10;99.90;;;;;;5033050;28;19924;-87
2020/12/21 16:51:51;;;;;;;;;;;8.10;99.90;;;;;;5032495;28;19920;-86
2020/12/21 16:54:17;;;;;;;;;;;8.20;99.90;;;;;;5021213;28;19914;-86
2020/12/21 16:56:42;;;;;;;;;;;8.10;99.90;;;;;;5026294;28;19917;-87
2020/12/21 16:59:11;;;;;;;;;;;8.10;99.90;;;;;;5022985;28;19913;-87
2020/12/21 17:01:40;;;;;;;;;;;8.10;99.90;;;;;;5029746;28;19919;-86
2020/12/21 17:04:06;;;;;;;;;;;8.20;99.90;;;;;;5013399;28;19993;-86
2020/12/21 17:06:32;;;;;;;;;;;8.20;99.90;;;;;;5012884;28;20010;-85
2020/12/21 17:08:57;;;;;;;;;;;8.20;99.90;;;;;;5013092;28;19914;-87
2020/12/21 17:11:28;;;;;;;;;;;8.30;99.90;;;;;;5025610;28;20391;-87
2020/12/21 17:13:55;;;;;;;;;;;8.20;99.90;;;;;;5013055;28;20409;-86
2020/12/21 17:16:22;;;;;;;;;;;8.20;99.90;;;;;;5011715;28;19913;-86
2020/12/21 17:18:49;;;;;;;;;;;8.10;99.90;;;;;;5012313;28;19909;-86
2020/12/21 17:21:14;;;;;;;;;;;8.10;99.90;;;;;;5011942;28;19914;-85
2020/12/21 17:23:40;;;;;;;;;;;8.20;99.90;;;;;;5009665;28;19920;-86
2020/12/21 17:26:06;;;;;;;;;;;8.20;99.90;;;;;;5011697;28;19913;-88
2020/12/21 17:28:35;;;;;;;;;;;8.10;99.90;;;;;;5010111;28;19924;-86
2020/12/21 17:31:01;;;;;;;;;;;8.10;99.90;;;;;;5016973;28;20481;-87
2020/12/21 17:33:28;;;;;;;;;;;8.10;99.90;;;;;;5004480;28;19925;-86
2020/12/21 17:35:54;;;;;;;;;;;8.10;99.90;;;;;;5011573;28;19913;-86
2020/12/21 17:38:22;;;;;;;;;;;8.20;99.90;;;;;;5011562;28;20451;-85
2020/12/21 17:40:51;;;;;;;;;;;8.30;99.90;;;;;;5012112;28;19917;-85
2020/12/21 17:43:17;;;;;;;;;;;8.20;99.90;;;;;;5012190;28;19913;-85
2020/12/21 17:45:45;;;;;;;;;;;8.20;99.90;;;;;;5023473;28;19971;-86
2020/12/21 17:48:13;;;;;;;;;;;8.20;99.90;;;;;;5028519;28;20338;-86
2020/12/21 17:50:39;;;;;;;;;;;8.30;99.90;;;;;;5012009;28;19925;-87
2020/12/21 17:53:05;;;;;;;;;;;8.20;99.90;;;;;;5011754;28;19929;-85
2020/12/21 17:55:33;;;;;;;;;;;8.20;99.90;;;;;;5012760;28;20013;-88
2020/12/21 17:57:59;;;;;;;;;;;8.20;99.90;;;;;;5011187;28;20384;-86
2020/12/21 18:00:24;;;;;;;;;;;8.30;99.90;;;;;;5012343;28;19910;-85
2020/12/21 18:02:53;;;;;;;;;;;8.30;99.90;;;;;;5012838;28;19916;-86
2020/12/21 18:05:18;;;;;;;;;;;8.20;99.90;;;;;;5013195;28;19909;-87
2020/12/21 18:07:49;;;;;;;;;;;8.20;99.90;;;;;;5010383;28;20107;-87
2020/12/21 18:10:15;;;;;;;;;;;8.20;99.90;;;;;;5021816;28;19925;-87
2020/12/21 18:12:44;;;;;;;;;;;8.20;99.90;;;;;;5010319;28;19926;-86
2020/12/21 18:15:12;;;;;;;;;;;8.10;99.90;;;;;;5010153;28;19910;-88
2020/12/21 18:17:37;;;;;;;;;;;8.10;99.90;;;;;;5009750;28;19921;-87
2020/12/21 18:20:05;;;;;;;;;;;8.10;99.90;;;;;;5010437;28;20297;-86
2020/12/21 18:22:31;;;;;;;;;;;8.10;99.90;;;;;;5019717;28;19914;-85
2020/12/21 18:24:57;;;;;;;;;;;8.10;99.90;;;;;;5011212;28;19914;-87
2020/12/21 18:27:26;;;;;;;;;;;8.10;99.90;;;;;;5005803;28;19925;-87
2020/12/21 18:29:52;;;;;;;;;;;8.20;99.90;;;;;;5010776;28;19917;-86
2020/12/21 18:32:22;;;;;;;;;;;8.20;99.90;;;;;;5030789;28;20375;-87
2020/12/21 18:34:47;;;;;;;;;;;8.20;99.90;;;;;;5013096;28;19910;-86
2020/12/21 18:37:13;;;;;;;;;;;8.20;99.90;;;;;;5014446;28;20420;-87
2020/12/21 18:39:43;;;;;;;;;;;8.10;99.90;;;;;;5013420;28;19909;-86
2020/12/21 18:42:19;;;;;;;;;;;8.10;99.90;;;;;;5013280;28;19960;-87
2020/12/21 18:44:47;;;;;;;;;;;8.10;99.90;;;;;;5030129;28;19960;-86
2020/12/21 18:47:13;;;;;;;;;;;8.10;99.90;;;;;;5007708;28;19914;-87
2020/12/21 18:49:41;;;;;;;;;;;8.10;99.90;;;;;;5012194;28;20009;-86
2020/12/21 18:52:09;;;;;;;;;;;8.10;99.90;;;;;;5009851;28;19914;-86
2020/12/21 18:54:36;;;;;;;;;;;8.10;99.90;;;;;;5004997;28;20138;-86
2020/12/21 18:57:08;;;;;;;;;;;8.10;99.90;;;;;;5009483;28;19920;-87
2020/12/21 18:59:34;;;;;;;;;;;8.00;99.90;;;;;;5010754;28;19949;-87
2020/12/21 19:02:00;;;;;;;;;;;8.00;99.90;;;;;;4997429;28;19948;-86
2020/12/21 19:04:25;;;;;;;;;;;8.00;99.90;;;;;;4997174;28;19916;-87
2020/12/21 19:06:53;;;;;;;;;;;8.00;99.90;;;;;;4996994;28;19921;-87
2020/12/21 19:09:19;;;;;;;;;;;8.00;99.90;;;;;;4997614;28;19926;-88
2020/12/21 19:11:49;;;;;;;;;;;8.00;99.90;;;;;;4997136;28;19914;-88
2020/12/21 19:14:14;;;;;;;;;;;8.00;99.90;;;;;;4997000;28;19909;-86
2020/12/21 19:16:40;;;;;;;;;;;8.00;99.90;;;;;;4997305;28;20281;-87
2020/12/21 19:19:05;;;;;;;;;;;8.00;99.90;;;;;;4996914;28;19910;-85
2020/12/21 19:21:31;;;;;;;;;;;8.00;99.90;;;;;;4997480;28;19913;-86
2020/12/21 19:24:02;;;;;;;;;;;8.00;99.90;;;;;;4997104;28;19936;-85
2020/12/21 19:26:30;;;;;;;;;;;8.10;99.90;;;;;;4997177;28;20000;-85
2020/12/21 19:28:56;;;;;;;;;;;8.20;99.90;;;;;;4996970;28;19959;-86
2020/12/21 19:31:29;;;;;;;;;;;8.20;99.90;;;;;;4996999;28;19921;-84
2020/12/21 19:33:54;;;;;;;;;;;8.10;99.90;;;;;;4996971;28;19914;-84
2020/12/21 19:36:22;;;;;;;;;;;8.10;99.90;;;;;;4996749;28;20333;-85
2020/12/21 19:38:48;;;;;;;;;;;8.20;99.90;;;;;;4996983;28;20011;-85